sensor_id;sensor_type;location;lat;lon;timestamp;temperature;humidity
5850;DHT22;2951;47.712;9.400;2023-12-28T00:02:11;-0.40;99.90
5850;DHT22;2951;47.712;9.400;2023-12-28T00:04:40;-0.40;99.90
5850;DHT22;2951;47.712;9.400;2023-12-28T00:07:07;-0.30;99.90
5850;DHT22;2951;47.712;9.400;2023-12-28T00:09:35;-0.40;99.90
5850;DHT22;2951;47.712;9.400;2023-12-28T00:12:07;-0.30;99.90
5850;DHT22;2951;47.712;9.400;2023-12-28T00:14:34;-0.40;99.90
5850;DHT22;2951;47.712;9.400;2023-12-28T00:17:01;-0.30;99.90
5850;DHT22;2951;47.712;9.400;2023-12-28T00:19:28;-0.40;99.90
5850;DHT22;2951;47.712;9.400;2023-12-28T00:21:55;-0.50;99.90
5850;DHT22;2951;47.712;9.400;2023-12-28T00:24:22;-0.50;99.90
5850;DHT22;2951;47.712;9.400;2023-12-28T00:26:49;-0.60;99.90
5850;DHT22;2951;47.712;9.400;2023-12-28T00:29:15;-0.60;99.90
5850;DHT22;2951;47.712;9.400;2023-12-28T00:32:06;-0.60;99.90
5850;DHT22;2951;47.712;9.400;2023-12-28T00:34:33;-0.60;99.90
5850;DHT22;2951;47.712;9.400;2023-12-28T00:37:00;-0.80;99.90
5850;DHT22;2951;47.712;9.400;2023-12-28T00:39:26;-1.10;99.90
5850;DHT22;2951;47.712;9.400;2023-12-28T00:41:53;-1.00;99.90
5850;DHT22;2951;47.712;9.400;2023-12-28T00:44:20;-1.00;99.90
5850;DHT22;2951;47.712;9.400;2023-12-28T00:46:46;-0.90;99.90
5850;DHT22;2951;47.712;9.400;2023-12-28T00:49:13;-1.00;99.90
5850;DHT22;2951;47.712;9.400;2023-12-28T00:51:40;-0.90;99.90
5850;DHT22;2951;47.712;9.400;2023-12-28T00:54:07;-0.90;99.90
5850;DHT22;2951;47.712;9.400;2023-12-28T00:56:34;-0.80;99.90
5850;DHT22;2951;47.712;9.400;2023-12-28T00:59:00;-0.90;99.90
5850;DHT22;2951;47.712;9.400;2023-12-28T01:01:29;-0.90;99.90
5850;DHT22;2951;47.712;9.400;2023-12-28T01:03:57;-0.90;99.90
5850;DHT22;2951;47.712;9.400;2023-12-28T01:06:24;-0.80;99.90
5850;DHT22;2951;47.712;9.400;2023-12-28T01:09:16;-0.80;99.90
5850;DHT22;2951;47.712;9.400;2023-12-28T01:11:43;-0.90;99.90
5850;DHT22;2951;47.712;9.400;2023-12-28T01:14:10;-0.90;99.90
5850;DHT22;2951;47.712;9.400;2023-12-28T01:16:37;-0.80;99.90
5850;DHT22;2951;47.712;9.400;2023-12-28T01:19:05;-0.80;99.90
5850;DHT22;2951;47.712;9.400;2023-12-28T01:21:33;-0.80;99.90
5850;DHT22;2951;47.712;9.400;2023-12-28T01:23:59;-0.90;99.90
5850;DHT22;2951;47.712;9.400;2023-12-28T01:26:26;-0.90;99.90
5850;DHT22;2951;47.712;9.400;2023-12-28T01:28:53;-0.90;99.90
5850;DHT22;2951;47.712;9.400;2023-12-28T01:31:20;-0.90;99.90
5850;DHT22;2951;47.712;9.400;2023-12-28T01:33:48;-1.10;99.90
5850;DHT22;2951;47.712;9.400;2023-12-28T01:36:18;-1.30;99.90
5850;DHT22;2951;47.712;9.400;2023-12-28T01:38:45;-1.30;99.90
5850;DHT22;2951;47.712;9.400;2023-12-28T01:41:14;-1.30;99.90
5850;DHT22;2951;47.712;9.400;2023-12-28T01:43:42;-1.20;99.90
5850;DHT22;2951;47.712;9.400;2023-12-28T01:46:11;-1.10;99.90
5850;DHT22;2951;47.712;9.400;2023-12-28T01:48:39;-1.00;99.90
5850;DHT22;2951;47.712;9.400;2023-12-28T01:51:06;-1.00;99.90
5850;DHT22;2951;47.712;9.400;2023-12-28T01:53:33;-1.00;99.90
5850;DHT22;2951;47.712;9.400;2023-12-28T01:56:01;-1.10;99.90
5850;DHT22;2951;47.712;9.400;2023-12-28T01:58:28;-1.10;99.90
5850;DHT22;2951;47.712;9.400;2023-12-28T02:00:58;-1.00;99.90
5850;DHT22;2951;47.712;9.400;2023-12-28T02:03:26;-1.00;99.90
5850;DHT22;2951;47.712;9.400;2023-12-28T02:05:59;-1.10;99.90
5850;DHT22;2951;47.712;9.400;2023-12-28T02:08:31;-1.10;99.90
5850;DHT22;2951;47.712;9.400;2023-12-28T02:10:58;-1.20;99.90
5850;DHT22;2951;47.712;9.400;2023-12-28T02:13:25;-1.30;99.90
5850;DHT22;2951;47.712;9.400;2023-12-28T02:15:54;-1.30;99.90
5850;DHT22;2951;47.712;9.400;2023-12-28T02:18:23;-1.30;99.90
5850;DHT22;2951;47.712;9.400;2023-12-28T02:20:53;-1.30;99.90
5850;DHT22;2951;47.712;9.400;2023-12-28T02:23:20;-1.20;99.90
5850;DHT22;2951;47.712;9.400;2023-12-28T02:25:47;-1.30;99.90
5850;DHT22;2951;47.712;9.400;2023-12-28T02:28:14;-1.20;99.90
5850;DHT22;2951;47.712;9.400;2023-12-28T02:30:41;-1.20;99.90
5850;DHT22;2951;47.712;9.400;2023-12-28T02:35:42;-1.10;99.90
5850;DHT22;2951;47.712;9.400;2023-12-28T02:38:11;-1.30;99.90
5850;DHT22;2951;47.712;9.400;2023-12-28T02:40:40;-1.40;99.90
5850;DHT22;2951;47.712;9.400;2023-12-28T02:43:07;-1.50;99.90
5850;DHT22;2951;47.712;9.400;2023-12-28T02:45:34;-1.50;99.90
5850;DHT22;2951;47.712;9.400;2023-12-28T02:48:03;-1.60;99.90
5850;DHT22;2951;47.712;9.400;2023-12-28T02:50:31;-1.50;99.90
5850;DHT22;2951;47.712;9.400;2023-12-28T02:52:58;-1.50;99.90
5850;DHT22;2951;47.712;9.400;2023-12-28T02:55:25;-1.40;99.90
5850;DHT22;2951;47.712;9.400;2023-12-28T02:57:53;-1.40;99.90
5850;DHT22;2951;47.712;9.400;2023-12-28T03:00:21;-1.40;99.90
5850;DHT22;2951;47.712;9.400;2023-12-28T03:02:50;-1.50;99.90
5850;DHT22;2951;47.712;9.400;2023-12-28T03:05:17;-1.50;99.90
5850;DHT22;2951;47.712;9.400;2023-12-28T03:07:44;-1.50;99.90
5850;DHT22;2951;47.712;9.400;2023-12-28T03:13:03;-1.40;99.90
5850;DHT22;2951;47.712;9.400;2023-12-28T03:15:31;-1.40;99.90
5850;DHT22;2951;47.712;9.400;2023-12-28T03:17:57;-1.40;99.90
5850;DHT22;2951;47.712;9.400;2023-12-28T03:20:25;-1.30;99.90
5850;DHT22;2951;47.712;9.400;2023-12-28T03:22:51;-1.30;99.90
5850;DHT22;2951;47.712;9.400;2023-12-28T03:25:18;-1.50;99.90
5850;DHT22;2951;47.712;9.400;2023-12-28T03:27:45;-1.50;99.90
5850;DHT22;2951;47.712;9.400;2023-12-28T03:30:12;-1.50;99.90
5850;DHT22;2951;47.712;9.400;2023-12-28T03:32:39;-1.50;99.90
5850;DHT22;2951;47.712;9.400;2023-12-28T03:35:06;-1.50;99.90
5850;DHT22;2951;47.712;9.400;2023-12-28T03:37:36;-1.50;99.90
5850;DHT22;2951;47.712;9.400;2023-12-28T03:40:03;-1.50;99.90
5850;DHT22;2951;47.712;9.400;2023-12-28T03:42:30;-1.50;99.90
5850;DHT22;2951;47.712;9.400;2023-12-28T03:44:57;-1.50;99.90
5850;DHT22;2951;47.712;9.400;2023-12-28T03:47:24;-1.80;99.90
5850;DHT22;2951;47.712;9.400;2023-12-28T03:49:51;-1.70;99.90
5850;DHT22;2951;47.712;9.400;2023-12-28T03:52:27;-1.70;99.90
5850;DHT22;2951;47.712;9.400;2023-12-28T03:54:57;-1.60;99.90
5850;DHT22;2951;47.712;9.400;2023-12-28T03:57:24;-1.60;99.90
5850;DHT22;2951;47.712;9.400;2023-12-28T03:59:52;-1.70;99.90
5850;DHT22;2951;47.712;9.400;2023-12-28T04:02:20;-1.60;99.90
5850;DHT22;2951;47.712;9.400;2023-12-28T04:04:47;-1.50;99.90
5850;DHT22;2951;47.712;9.400;2023-12-28T04:07:14;-1.50;99.90
5850;DHT22;2951;47.712;9.400;2023-12-28T04:09:47;-1.50;99.90
5850;DHT22;2951;47.712;9.400;2023-12-28T04:12:14;-1.40;99.90
5850;DHT22;2951;47.712;9.400;2023-12-28T04:14:40;-1.40;99.90
5850;DHT22;2951;47.712;9.400;2023-12-28T04:17:07;-1.40;99.90
5850;DHT22;2951;47.712;9.400;2023-12-28T04:19:34;-1.40;99.90
5850;DHT22;2951;47.712;9.400;2023-12-28T04:22:06;-1.40;99.90
5850;DHT22;2951;47.712;9.400;2023-12-28T04:24:33;-1.40;99.90
5850;DHT22;2951;47.712;9.400;2023-12-28T04:27:00;-1.50;99.90
5850;DHT22;2951;47.712;9.400;2023-12-28T04:29:28;-1.60;99.90
5850;DHT22;2951;47.712;9.400;2023-12-28T04:31:55;-1.70;99.90
5850;DHT22;2951;47.712;9.400;2023-12-28T04:34:22;-1.70;99.90
5850;DHT22;2951;47.712;9.400;2023-12-28T04:36:49;-1.60;99.90
5850;DHT22;2951;47.712;9.400;2023-12-28T04:39:16;-1.60;99.90
5850;DHT22;2951;47.712;9.400;2023-12-28T04:41:43;-1.50;99.90
5850;DHT22;2951;47.712;9.400;2023-12-28T04:44:10;-1.50;99.90
5850;DHT22;2951;47.712;9.400;2023-12-28T04:46:37;-1.40;99.90
5850;DHT22;2951;47.712;9.400;2023-12-28T04:49:04;-1.50;99.90
5850;DHT22;2951;47.712;9.400;2023-12-28T04:51:31;-1.60;99.90
5850;DHT22;2951;47.712;9.400;2023-12-28T04:53:58;-1.50;99.90
5850;DHT22;2951;47.712;9.400;2023-12-28T04:56:24;-1.50;99.90
5850;DHT22;2951;47.712;9.400;2023-12-28T04:58:52;-1.50;99.90
5850;DHT22;2951;47.712;9.400;2023-12-28T05:01:19;-1.70;99.90
5850;DHT22;2951;47.712;9.400;2023-12-28T05:03:45;-1.80;99.90
5850;DHT22;2951;47.712;9.400;2023-12-28T05:06:15;-1.80;99.90
5850;DHT22;2951;47.712;9.400;2023-12-28T05:08:45;-1.80;99.90
5850;DHT22;2951;47.712;9.400;2023-12-28T05:11:12;-1.70;99.90
5850;DHT22;2951;47.712;9.400;2023-12-28T05:13:39;-1.70;99.90
5850;DHT22;2951;47.712;9.400;2023-12-28T05:16:05;-1.60;99.90
5850;DHT22;2951;47.712;9.400;2023-12-28T05:18:32;-1.60;99.90
5850;DHT22;2951;47.712;9.400;2023-12-28T05:20:59;-1.60;99.90
5850;DHT22;2951;47.712;9.400;2023-12-28T05:23:26;-1.60;99.90
5850;DHT22;2951;47.712;9.400;2023-12-28T05:25:53;-1.80;99.90
5850;DHT22;2951;47.712;9.400;2023-12-28T05:28:19;-1.80;99.90
5850;DHT22;2951;47.712;9.400;2023-12-28T05:30:46;-1.70;99.90
5850;DHT22;2951;47.712;9.400;2023-12-28T05:33:13;-1.70;99.90
5850;DHT22;2951;47.712;9.400;2023-12-28T05:35:40;-1.60;99.90
5850;DHT22;2951;47.712;9.400;2023-12-28T05:38:06;-1.50;99.90
5850;DHT22;2951;47.712;9.400;2023-12-28T05:40:33;-1.70;99.90
5850;DHT22;2951;47.712;9.400;2023-12-28T05:43:00;-1.70;99.90
5850;DHT22;2951;47.712;9.400;2023-12-28T05:45:27;-1.60;99.90
5850;DHT22;2951;47.712;9.400;2023-12-28T05:47:54;-1.90;99.90
5850;DHT22;2951;47.712;9.400;2023-12-28T05:50:23;-2.10;99.90
5850;DHT22;2951;47.712;9.400;2023-12-28T05:52:49;-1.90;99.90
5850;DHT22;2951;47.712;9.400;2023-12-28T05:55:16;-1.80;99.90
5850;DHT22;2951;47.712;9.400;2023-12-28T05:57:43;-1.70;99.90
5850;DHT22;2951;47.712;9.400;2023-12-28T06:00:10;-1.60;99.90
5850;DHT22;2951;47.712;9.400;2023-12-28T06:02:37;-1.70;99.90
5850;DHT22;2951;47.712;9.400;2023-12-28T06:05:04;-1.70;99.90
5850;DHT22;2951;47.712;9.400;2023-12-28T06:07:34;-1.60;99.90
5850;DHT22;2951;47.712;9.400;2023-12-28T06:10:03;-1.50;99.90
5850;DHT22;2951;47.712;9.400;2023-12-28T06:12:30;-1.50;99.90
5850;DHT22;2951;47.712;9.400;2023-12-28T06:14:57;-1.50;99.90
5850;DHT22;2951;47.712;9.400;2023-12-28T06:17:25;-1.40;99.90
5850;DHT22;2951;47.712;9.400;2023-12-28T06:19:52;-1.40;99.90
5850;DHT22;2951;47.712;9.400;2023-12-28T06:22:19;-1.40;99.90
5850;DHT22;2951;47.712;9.400;2023-12-28T06:24:46;-1.40;99.90
5850;DHT22;2951;47.712;9.400;2023-12-28T06:27:15;-1.50;99.90
5850;DHT22;2951;47.712;9.400;2023-12-28T06:29:41;-1.60;99.90
5850;DHT22;2951;47.712;9.400;2023-12-28T06:32:08;-1.60;99.90
5850;DHT22;2951;47.712;9.400;2023-12-28T06:34:35;-1.60;99.90
5850;DHT22;2951;47.712;9.400;2023-12-28T06:37:02;-1.60;99.90
5850;DHT22;2951;47.712;9.400;2023-12-28T06:39:29;-1.60;99.90
5850;DHT22;2951;47.712;9.400;2023-12-28T06:41:56;-1.50;99.90
5850;DHT22;2951;47.712;9.400;2023-12-28T06:44:23;-1.50;99.90
5850;DHT22;2951;47.712;9.400;2023-12-28T06:46:50;-1.40;99.90
5850;DHT22;2951;47.712;9.400;2023-12-28T06:49:17;-1.40;99.90
5850;DHT22;2951;47.712;9.400;2023-12-28T06:51:44;-1.40;99.90
5850;DHT22;2951;47.712;9.400;2023-12-28T06:54:13;-1.40;99.90
5850;DHT22;2951;47.712;9.400;2023-12-28T06:56:40;-1.40;99.90
5850;DHT22;2951;47.712;9.400;2023-12-28T06:59:07;-1.50;99.90
5850;DHT22;2951;47.712;9.400;2023-12-28T07:01:41;-1.40;99.90
5850;DHT22;2951;47.712;9.400;2023-12-28T07:04:09;-1.50;99.90
5850;DHT22;2951;47.712;9.400;2023-12-28T07:06:41;-1.40;99.90
5850;DHT22;2951;47.712;9.400;2023-12-28T07:09:12;-1.40;99.90
5850;DHT22;2951;47.712;9.400;2023-12-28T07:11:39;-1.60;99.90
5850;DHT22;2951;47.712;9.400;2023-12-28T07:14:06;-1.70;99.90
5850;DHT22;2951;47.712;9.400;2023-12-28T07:16:32;-1.60;99.90
5850;DHT22;2951;47.712;9.400;2023-12-28T07:18:59;-1.60;99.90
5850;DHT22;2951;47.712;9.400;2023-12-28T07:21:29;-1.40;99.90
5850;DHT22;2951;47.712;9.400;2023-12-28T07:23:56;-1.40;99.90
5850;DHT22;2951;47.712;9.400;2023-12-28T07:26:22;-1.40;99.90
5850;DHT22;2951;47.712;9.400;2023-12-28T07:28:49;-1.40;99.90
5850;DHT22;2951;47.712;9.400;2023-12-28T07:31:25;-1.30;99.90
5850;DHT22;2951;47.712;9.400;2023-12-28T07:33:52;-1.20;99.90
5850;DHT22;2951;47.712;9.400;2023-12-28T07:36:20;-1.00;99.90
5850;DHT22;2951;47.712;9.400;2023-12-28T07:38:47;-1.00;99.90
5850;DHT22;2951;47.712;9.400;2023-12-28T07:41:14;-0.90;99.90
5850;DHT22;2951;47.712;9.400;2023-12-28T07:43:45;-1.00;99.90
5850;DHT22;2951;47.712;9.400;2023-12-28T07:46:12;-1.00;99.90
5850;DHT22;2951;47.712;9.400;2023-12-28T07:48:39;-0.80;99.90
5850;DHT22;2951;47.712;9.400;2023-12-28T07:51:07;-0.60;99.90
5850;DHT22;2951;47.712;9.400;2023-12-28T07:53:34;-0.50;99.90
5850;DHT22;2951;47.712;9.400;2023-12-28T07:56:00;-0.50;99.90
5850;DHT22;2951;47.712;9.400;2023-12-28T07:58:29;-0.30;99.90
5850;DHT22;2951;47.712;9.400;2023-12-28T08:00:56;-0.20;99.90
5850;DHT22;2951;47.712;9.400;2023-12-28T08:03:23;0.00;99.90
5850;DHT22;2951;47.712;9.400;2023-12-28T08:05:50;-0.10;99.90
5850;DHT22;2951;47.712;9.400;2023-12-28T08:08:22;0.00;99.90
5850;DHT22;2951;47.712;9.400;2023-12-28T08:10:48;0.10;99.90
5850;DHT22;2951;47.712;9.400;2023-12-28T08:13:16;0.10;99.90
5850;DHT22;2951;47.712;9.400;2023-12-28T08:15:46;0.20;99.90
5850;DHT22;2951;47.712;9.400;2023-12-28T08:18:13;0.40;99.90
5850;DHT22;2951;47.712;9.400;2023-12-28T08:20:40;0.50;99.90
5850;DHT22;2951;47.712;9.400;2023-12-28T08:23:07;0.60;99.90
5850;DHT22;2951;47.712;9.400;2023-12-28T08:25:42;0.50;99.90
5850;DHT22;2951;47.712;9.400;2023-12-28T08:28:10;0.60;99.90
5850;DHT22;2951;47.712;9.400;2023-12-28T08:30:37;0.60;99.90
5850;DHT22;2951;47.712;9.400;2023-12-28T08:33:04;0.80;99.90
5850;DHT22;2951;47.712;9.400;2023-12-28T08:35:31;0.80;99.90
5850;DHT22;2951;47.712;9.400;2023-12-28T08:37:57;0.90;99.90
5850;DHT22;2951;47.712;9.400;2023-12-28T08:40:24;0.90;99.90
5850;DHT22;2951;47.712;9.400;2023-12-28T08:42:53;1.10;99.90
5850;DHT22;2951;47.712;9.400;2023-12-28T08:45:20;1.20;99.90
5850;DHT22;2951;47.712;9.400;2023-12-28T08:47:47;1.30;99.90
5850;DHT22;2951;47.712;9.400;2023-12-28T08:50:17;1.40;99.90
5850;DHT22;2951;47.712;9.400;2023-12-28T08:52:44;1.40;99.90
5850;DHT22;2951;47.712;9.400;2023-12-28T08:55:11;1.40;99.90
5850;DHT22;2951;47.712;9.400;2023-12-28T08:57:38;1.40;99.90
5850;DHT22;2951;47.712;9.400;2023-12-28T09:00:08;1.50;99.90
5850;DHT22;2951;47.712;9.400;2023-12-28T09:02:36;1.60;99.90
5850;DHT22;2951;47.712;9.400;2023-12-28T09:05:03;1.80;99.90
5850;DHT22;2951;47.712;9.400;2023-12-28T09:07:30;1.80;99.90
5850;DHT22;2951;47.712;9.400;2023-12-28T09:10:04;2.00;99.90
5850;DHT22;2951;47.712;9.400;2023-12-28T09:12:31;2.10;99.90
5850;DHT22;2951;47.712;9.400;2023-12-28T09:14:58;2.10;99.90
5850;DHT22;2951;47.712;9.400;2023-12-28T09:17:25;2.10;99.90
5850;DHT22;2951;47.712;9.400;2023-12-28T09:19:54;2.20;99.90
5850;DHT22;2951;47.712;9.400;2023-12-28T09:22:21;2.10;99.90
5850;DHT22;2951;47.712;9.400;2023-12-28T09:24:49;2.20;99.90
5850;DHT22;2951;47.712;9.400;2023-12-28T09:27:15;2.20;99.90
5850;DHT22;2951;47.712;9.400;2023-12-28T09:29:42;2.50;99.90
5850;DHT22;2951;47.712;9.400;2023-12-28T09:32:09;2.60;99.90
5850;DHT22;2951;47.712;9.400;2023-12-28T09:34:36;2.80;99.90
5850;DHT22;2951;47.712;9.400;2023-12-28T09:37:03;3.00;99.90
5850;DHT22;2951;47.712;9.400;2023-12-28T09:39:30;3.10;99.90
5850;DHT22;2951;47.712;9.400;2023-12-28T09:41:59;2.90;99.90
5850;DHT22;2951;47.712;9.400;2023-12-28T09:44:27;2.70;99.90
5850;DHT22;2951;47.712;9.400;2023-12-28T09:46:55;2.40;99.90
5850;DHT22;2951;47.712;9.400;2023-12-28T09:49:24;2.20;99.90
5850;DHT22;2951;47.712;9.400;2023-12-28T09:51:51;2.10;99.90
5850;DHT22;2951;47.712;9.400;2023-12-28T09:54:18;2.20;99.90
5850;DHT22;2951;47.712;9.400;2023-12-28T09:56:44;2.30;99.90
5850;DHT22;2951;47.712;9.400;2023-12-28T09:59:11;2.40;99.90
5850;DHT22;2951;47.712;9.400;2023-12-28T10:01:39;2.50;99.90
5850;DHT22;2951;47.712;9.400;2023-12-28T10:04:07;2.60;99.90
5850;DHT22;2951;47.712;9.400;2023-12-28T10:06:35;2.60;99.90
5850;DHT22;2951;47.712;9.400;2023-12-28T10:09:07;2.80;99.90
5850;DHT22;2951;47.712;9.400;2023-12-28T10:11:34;2.90;99.90
5850;DHT22;2951;47.712;9.400;2023-12-28T10:14:01;2.90;99.90
5850;DHT22;2951;47.712;9.400;2023-12-28T10:16:28;2.90;99.90
5850;DHT22;2951;47.712;9.400;2023-12-28T10:18:56;2.90;99.90
5850;DHT22;2951;47.712;9.400;2023-12-28T10:21:26;2.90;99.90
5850;DHT22;2951;47.712;9.400;2023-12-28T10:23:53;2.80;99.90
5850;DHT22;2951;47.712;9.400;2023-12-28T10:26:21;2.70;99.90
5850;DHT22;2951;47.712;9.400;2023-12-28T10:28:49;2.70;99.90
5850;DHT22;2951;47.712;9.400;2023-12-28T10:31:16;2.80;99.90
5850;DHT22;2951;47.712;9.400;2023-12-28T10:33:44;2.90;99.90
5850;DHT22;2951;47.712;9.400;2023-12-28T10:36:12;2.90;99.90
5850;DHT22;2951;47.712;9.400;2023-12-28T10:38:41;2.90;99.90
5850;DHT22;2951;47.712;9.400;2023-12-28T10:41:10;2.80;99.90
5850;DHT22;2951;47.712;9.400;2023-12-28T10:43:45;2.70;99.90
5850;DHT22;2951;47.712;9.400;2023-12-28T10:46:48;2.60;99.90
5850;DHT22;2951;47.712;9.400;2023-12-28T10:49:13;2.60;99.90
5850;DHT22;2951;47.712;9.400;2023-12-28T10:51:43;2.60;99.90
5850;DHT22;2951;47.712;9.400;2023-12-28T11:00:01;2.70;99.90
5850;DHT22;2951;47.712;9.400;2023-12-28T11:02:32;2.80;99.90
5850;DHT22;2951;47.712;9.400;2023-12-28T11:05:03;2.90;99.90
5850;DHT22;2951;47.712;9.400;2023-12-28T11:07:30;3.00;99.90
5850;DHT22;2951;47.712;9.400;2023-12-28T11:10:02;2.90;99.90
5850;DHT22;2951;47.712;9.400;2023-12-28T11:12:31;2.90;99.90
5850;DHT22;2951;47.712;9.400;2023-12-28T11:14:58;3.00;99.90
5850;DHT22;2951;47.712;9.400;2023-12-28T11:17:25;3.20;99.90
5850;DHT22;2951;47.712;9.400;2023-12-28T11:19:53;3.30;99.90
5850;DHT22;2951;47.712;9.400;2023-12-28T11:22:21;3.40;99.90
5850;DHT22;2951;47.712;9.400;2023-12-28T11:24:48;3.50;99.90
5850;DHT22;2951;47.712;9.400;2023-12-28T11:27:15;3.60;99.90
5850;DHT22;2951;47.712;9.400;2023-12-28T11:29:43;3.70;99.90
5850;DHT22;2951;47.712;9.400;2023-12-28T11:32:13;3.80;99.90
5850;DHT22;2951;47.712;9.400;2023-12-28T11:34:39;3.90;99.90
5850;DHT22;2951;47.712;9.400;2023-12-28T11:37:07;4.20;99.90
5850;DHT22;2951;47.712;9.400;2023-12-28T11:39:35;4.20;99.90
5850;DHT22;2951;47.712;9.400;2023-12-28T11:42:03;4.10;99.90
5850;DHT22;2951;47.712;9.400;2023-12-28T11:44:43;4.20;99.90
5850;DHT22;2951;47.712;9.400;2023-12-28T11:47:14;4.40;99.90
5850;DHT22;2951;47.712;9.400;2023-12-28T11:49:41;4.50;99.90
5850;DHT22;2951;47.712;9.400;2023-12-28T11:52:09;4.50;99.90
5850;DHT22;2951;47.712;9.400;2023-12-28T11:54:37;4.60;99.90
5850;DHT22;2951;47.712;9.400;2023-12-28T11:57:04;4.70;99.90
5850;DHT22;2951;47.712;9.400;2023-12-28T11:59:31;4.80;99.90
5850;DHT22;2951;47.712;9.400;2023-12-28T12:02:00;4.80;99.90
5850;DHT22;2951;47.712;9.400;2023-12-28T12:04:27;4.90;99.90
5850;DHT22;2951;47.712;9.400;2023-12-28T12:10:15;5.10;99.90
5850;DHT22;2951;47.712;9.400;2023-12-28T12:12:45;5.40;99.90
5850;DHT22;2951;47.712;9.400;2023-12-28T12:15:12;5.40;99.90
5850;DHT22;2951;47.712;9.400;2023-12-28T12:17:39;5.40;99.90
5850;DHT22;2951;47.712;9.400;2023-12-28T12:20:06;5.50;99.90
5850;DHT22;2951;47.712;9.400;2023-12-28T12:22:40;5.50;99.90
5850;DHT22;2951;47.712;9.400;2023-12-28T12:25:16;5.70;99.90
5850;DHT22;2951;47.712;9.400;2023-12-28T12:27:47;5.70;99.90
5850;DHT22;2951;47.712;9.400;2023-12-28T12:30:14;5.80;99.90
5850;DHT22;2951;47.712;9.400;2023-12-28T12:32:41;5.60;99.90
5850;DHT22;2951;47.712;9.400;2023-12-28T12:35:23;5.40;99.90
5850;DHT22;2951;47.712;9.400;2023-12-28T12:37:50;5.20;99.90
5850;DHT22;2951;47.712;9.400;2023-12-28T12:40:17;5.30;99.90
5850;DHT22;2951;47.712;9.400;2023-12-28T12:42:55;5.20;99.90
5850;DHT22;2951;47.712;9.400;2023-12-28T12:45:22;5.20;99.90
5850;DHT22;2951;47.712;9.400;2023-12-28T12:47:51;5.20;99.90
5850;DHT22;2951;47.712;9.400;2023-12-28T12:50:18;5.30;99.90
5850;DHT22;2951;47.712;9.400;2023-12-28T12:52:44;5.30;99.90
5850;DHT22;2951;47.712;9.400;2023-12-28T12:55:14;5.30;99.90
5850;DHT22;2951;47.712;9.400;2023-12-28T12:57:41;5.20;99.90
5850;DHT22;2951;47.712;9.400;2023-12-28T13:00:09;5.20;99.90
5850;DHT22;2951;47.712;9.400;2023-12-28T13:02:36;5.30;99.90
5850;DHT22;2951;47.712;9.400;2023-12-28T13:05:03;5.50;99.90
5850;DHT22;2951;47.712;9.400;2023-12-28T13:07:37;5.50;99.90
5850;DHT22;2951;47.712;9.400;2023-12-28T13:10:12;5.60;99.90
5850;DHT22;2951;47.712;9.400;2023-12-28T13:12:39;5.60;99.90
5850;DHT22;2951;47.712;9.400;2023-12-28T13:15:06;5.50;99.90
5850;DHT22;2951;47.712;9.400;2023-12-28T13:17:56;5.50;99.90
5850;DHT22;2951;47.712;9.400;2023-12-28T13:20:22;5.50;99.90
5850;DHT22;2951;47.712;9.400;2023-12-28T13:22:49;5.60;99.90
5850;DHT22;2951;47.712;9.400;2023-12-28T13:25:18;5.60;99.90
5850;DHT22;2951;47.712;9.400;2023-12-28T13:27:45;5.70;99.90
5850;DHT22;2951;47.712;9.400;2023-12-28T13:30:12;5.70;99.90
5850;DHT22;2951;47.712;9.400;2023-12-28T13:32:40;5.60;99.90
5850;DHT22;2951;47.712;9.400;2023-12-28T13:35:07;5.50;99.90
5850;DHT22;2951;47.712;9.400;2023-12-28T13:37:34;5.40;99.90
5850;DHT22;2951;47.712;9.400;2023-12-28T13:40:01;5.30;99.90
5850;DHT22;2951;47.712;9.400;2023-12-28T13:42:28;5.20;99.90
5850;DHT22;2951;47.712;9.400;2023-12-28T13:44:54;5.10;99.90
5850;DHT22;2951;47.712;9.400;2023-12-28T13:47:21;5.20;99.90
5850;DHT22;2951;47.712;9.400;2023-12-28T13:49:48;5.20;99.90
5850;DHT22;2951;47.712;9.400;2023-12-28T13:52:15;5.20;99.90
5850;DHT22;2951;47.712;9.400;2023-12-28T13:54:43;5.30;99.90
5850;DHT22;2951;47.712;9.400;2023-12-28T13:57:10;5.30;99.90
5850;DHT22;2951;47.712;9.400;2023-12-28T13:59:37;5.30;99.90
5850;DHT22;2951;47.712;9.400;2023-12-28T14:02:03;5.30;99.90
5850;DHT22;2951;47.712;9.400;2023-12-28T14:04:30;5.30;99.90
5850;DHT22;2951;47.712;9.400;2023-12-28T14:06:57;5.20;99.90
5850;DHT22;2951;47.712;9.400;2023-12-28T14:09:24;5.20;99.90
5850;DHT22;2951;47.712;9.400;2023-12-28T14:11:52;5.20;99.90
5850;DHT22;2951;47.712;9.400;2023-12-28T14:17:06;5.10;99.90
5850;DHT22;2951;47.712;9.400;2023-12-28T14:19:33;5.10;99.90
5850;DHT22;2951;47.712;9.400;2023-12-28T14:22:00;5.10;99.90
5850;DHT22;2951;47.712;9.400;2023-12-28T14:24:27;5.20;99.90
5850;DHT22;2951;47.712;9.400;2023-12-28T14:26:54;5.20;99.90
5850;DHT22;2951;47.712;9.400;2023-12-28T14:29:21;5.20;99.90
5850;DHT22;2951;47.712;9.400;2023-12-28T14:31:51;5.30;99.90
5850;DHT22;2951;47.712;9.400;2023-12-28T14:34:18;5.20;99.90
5850;DHT22;2951;47.712;9.400;2023-12-28T14:36:45;5.20;99.90
5850;DHT22;2951;47.712;9.400;2023-12-28T14:39:17;5.20;99.90
5850;DHT22;2951;47.712;9.400;2023-12-28T14:41:47;5.20;99.90
5850;DHT22;2951;47.712;9.400;2023-12-28T14:44:13;5.30;99.90
5850;DHT22;2951;47.712;9.400;2023-12-28T14:46:45;5.30;99.90
5850;DHT22;2951;47.712;9.400;2023-12-28T14:49:18;5.30;99.90
5850;DHT22;2951;47.712;9.400;2023-12-28T14:51:45;5.10;99.90
5850;DHT22;2951;47.712;9.400;2023-12-28T14:54:12;5.10;99.90
5850;DHT22;2951;47.712;9.400;2023-12-28T14:56:38;5.00;99.90
5850;DHT22;2951;47.712;9.400;2023-12-28T14:59:14;5.00;99.90
5850;DHT22;2951;47.712;9.400;2023-12-28T15:01:40;5.00;99.90
5850;DHT22;2951;47.712;9.400;2023-12-28T15:04:09;5.00;99.90
5850;DHT22;2951;47.712;9.400;2023-12-28T15:06:36;5.00;99.90
5850;DHT22;2951;47.712;9.400;2023-12-28T15:09:05;5.00;99.90
5850;DHT22;2951;47.712;9.400;2023-12-28T15:11:34;5.00;99.90
5850;DHT22;2951;47.712;9.400;2023-12-28T15:14:11;5.00;99.90
5850;DHT22;2951;47.712;9.400;2023-12-28T15:16:37;4.90;99.90
5850;DHT22;2951;47.712;9.400;2023-12-28T15:19:05;4.90;99.90
5850;DHT22;2951;47.712;9.400;2023-12-28T15:21:32;4.80;99.90
5850;DHT22;2951;47.712;9.400;2023-12-28T15:24:02;4.80;99.90
5850;DHT22;2951;47.712;9.400;2023-12-28T15:26:30;4.70;99.90
5850;DHT22;2951;47.712;9.400;2023-12-28T15:28:57;4.80;99.90
5850;DHT22;2951;47.712;9.400;2023-12-28T15:31:24;4.80;99.90
5850;DHT22;2951;47.712;9.400;2023-12-28T15:33:51;4.70;99.90
5850;DHT22;2951;47.712;9.400;2023-12-28T15:36:18;4.70;99.90
5850;DHT22;2951;47.712;9.400;2023-12-28T15:38:45;4.70;99.90
5850;DHT22;2951;47.712;9.400;2023-12-28T15:41:12;4.70;99.90
5850;DHT22;2951;47.712;9.400;2023-12-28T15:43:39;4.80;99.90
5850;DHT22;2951;47.712;9.400;2023-12-28T15:46:07;4.70;99.90
5850;DHT22;2951;47.712;9.400;2023-12-28T15:48:35;4.70;99.90
5850;DHT22;2951;47.712;9.400;2023-12-28T15:51:05;4.70;99.90
5850;DHT22;2951;47.712;9.400;2023-12-28T15:53:34;4.80;99.90
5850;DHT22;2951;47.712;9.400;2023-12-28T15:56:01;4.80;99.90
5850;DHT22;2951;47.712;9.400;2023-12-28T15:58:38;4.80;99.90
5850;DHT22;2951;47.712;9.400;2023-12-28T16:01:05;4.80;99.90
5850;DHT22;2951;47.712;9.400;2023-12-28T16:03:32;4.80;99.90
5850;DHT22;2951;47.712;9.400;2023-12-28T16:05:59;4.80;99.90
5850;DHT22;2951;47.712;9.400;2023-12-28T16:08:28;4.70;99.90
5850;DHT22;2951;47.712;9.400;2023-12-28T16:10:54;4.70;99.90
5850;DHT22;2951;47.712;9.400;2023-12-28T16:13:24;4.70;99.90
5850;DHT22;2951;47.712;9.400;2023-12-28T16:15:51;4.70;99.90
5850;DHT22;2951;47.712;9.400;2023-12-28T16:18:18;4.80;99.90
5850;DHT22;2951;47.712;9.400;2023-12-28T16:20:45;4.70;99.90
5850;DHT22;2951;47.712;9.400;2023-12-28T16:23:15;4.80;99.90
5850;DHT22;2951;47.712;9.400;2023-12-28T16:25:42;4.80;99.90
5850;DHT22;2951;47.712;9.400;2023-12-28T16:28:12;4.80;99.90
5850;DHT22;2951;47.712;9.400;2023-12-28T16:30:39;4.80;99.90
5850;DHT22;2951;47.712;9.400;2023-12-28T16:33:06;4.70;99.90